<?xml version="1.0" encoding="UTF-8" standalone="no" ?>
<gpx xmlns="http://www.topografix.com/GPX/1/1" xmlns:xsi="http://www.w3.org/2001/XMLSchema-instance" xsi:schemaLocation="http://www.topografix.com/GPX/1/1 http://www.topografix.com/GPX/1/1/gpx.xsd" version="1.1" creator="VisuGPX - https://www.visugpx.com">
  <metadata>
    <name>Transcaucasie: Géorgie + Arménie</name>
  </metadata>
  <trk>
    <name><![CDATA[Tour d'Europe: étape 490]]></name>
    <extensions>
      <line xmlns="http://www.topografix.com/GPX/gpx_style/0/2">
        <color>0000FF</color>
        <width>4</width>
      </line>
    </extensions>
    <trkseg>
      <trkpt lat="40.48216" lon="44.35759">
        <ele>1977.410921</ele>
        <time>2021-10-31T05:16:07.961Z</time>
      </trkpt>
      <trkpt lat="40.48234" lon="44.35858">
        <ele>1977.229482</ele>
        <time>2021-10-31T05:41:33.889Z</time>
      </trkpt>
      <trkpt lat="40.48435" lon="44.35805">
        <ele>1975.008408</ele>
        <time>2021-10-31T05:42:45.864Z</time>
      </trkpt>
      <trkpt lat="40.48642" lon="44.35763">
        <ele>1978.86378</ele>
        <time>2021-10-31T05:43:44.903Z</time>
      </trkpt>
      <trkpt lat="40.48846" lon="44.35699">
        <ele>1982.345367</ele>
        <time>2021-10-31T05:44:56.876Z</time>
      </trkpt>
      <trkpt lat="40.49079" lon="44.35632">
        <ele>1981.112366</ele>
        <time>2021-10-31T05:45:55.862Z</time>
      </trkpt>
      <trkpt lat="40.49312" lon="44.35639">
        <ele>1976.697962</ele>
        <time>2021-10-31T05:46:47.864Z</time>
      </trkpt>
      <trkpt lat="40.4952" lon="44.35643">
        <ele>1971.3149</ele>
        <time>2021-10-31T05:47:27.864Z</time>
      </trkpt>
      <trkpt lat="40.49731" lon="44.35681">
        <ele>1965.031649</ele>
        <time>2021-10-31T05:48:11.875Z</time>
      </trkpt>
      <trkpt lat="40.49936" lon="44.35848">
        <ele>1957.68719</ele>
        <time>2021-10-31T05:48:51.881Z</time>
      </trkpt>
      <trkpt lat="40.50138" lon="44.36011">
        <ele>1950.368158</ele>
        <time>2021-10-31T05:49:31.842Z</time>
      </trkpt>
      <trkpt lat="40.50189" lon="44.36299">
        <ele>1941.225454</ele>
        <time>2021-10-31T05:50:11.863Z</time>
      </trkpt>
      <trkpt lat="40.50308" lon="44.36572">
        <ele>1934.100934</ele>
        <time>2021-10-31T05:50:51.886Z</time>
      </trkpt>
      <trkpt lat="40.50485" lon="44.3678">
        <ele>1928.216959</ele>
        <time>2021-10-31T05:51:31.864Z</time>
      </trkpt>
      <trkpt lat="40.50689" lon="44.36981">
        <ele>1918.522809</ele>
        <time>2021-10-31T05:52:11.836Z</time>
      </trkpt>
      <trkpt lat="40.50891" lon="44.37175">
        <ele>1907.790761</ele>
        <time>2021-10-31T05:52:51.859Z</time>
      </trkpt>
      <trkpt lat="40.51069" lon="44.37357">
        <ele>1902.030548</ele>
        <time>2021-10-31T05:53:29.845Z</time>
      </trkpt>
      <trkpt lat="40.51226" lon="44.37648">
        <ele>1900.067817</ele>
        <time>2021-10-31T05:54:11.875Z</time>
      </trkpt>
      <trkpt lat="40.51367" lon="44.37916">
        <ele>1896.531889</ele>
        <time>2021-10-31T05:54:51.908Z</time>
      </trkpt>
      <trkpt lat="40.51506" lon="44.38132">
        <ele>1897.138066</ele>
        <time>2021-10-31T05:55:50.854Z</time>
      </trkpt>
      <trkpt lat="40.51674" lon="44.38336">
        <ele>1896.098747</ele>
        <time>2021-10-31T05:56:40.862Z</time>
      </trkpt>
      <trkpt lat="40.51773" lon="44.3859">
        <ele>1893.800551</ele>
        <time>2021-10-31T05:57:45.873Z</time>
      </trkpt>
      <trkpt lat="40.51731" lon="44.38862">
        <ele>1890.90392</ele>
        <time>2021-10-31T05:58:31.867Z</time>
      </trkpt>
      <trkpt lat="40.51817" lon="44.39014">
        <ele>1895.00344</ele>
        <time>2021-10-31T05:59:28.888Z</time>
      </trkpt>
      <trkpt lat="40.5205" lon="44.3903">
        <ele>1894.251939</ele>
        <time>2021-10-31T06:00:08.890Z</time>
      </trkpt>
      <trkpt lat="40.52254" lon="44.39049">
        <ele>1902.251736</ele>
        <time>2021-10-31T06:01:30.879Z</time>
      </trkpt>
      <trkpt lat="40.52452" lon="44.39063">
        <ele>1913.917244</ele>
        <time>2021-10-31T06:03:32.873Z</time>
      </trkpt>
      <trkpt lat="40.52649" lon="44.39007">
        <ele>1924.006158</ele>
        <time>2021-10-31T06:05:07.908Z</time>
      </trkpt>
      <trkpt lat="40.52829" lon="44.3891">
        <ele>1932.78102</ele>
        <time>2021-10-31T06:06:47.900Z</time>
      </trkpt>
      <trkpt lat="40.53013" lon="44.38812">
        <ele>1940.709538</ele>
        <time>2021-10-31T06:08:30.881Z</time>
      </trkpt>
      <trkpt lat="40.53219" lon="44.38794">
        <ele>1944.761264</ele>
        <time>2021-10-31T06:09:44.887Z</time>
      </trkpt>
      <trkpt lat="40.5341" lon="44.38783">
        <ele>1947.197069</ele>
        <time>2021-10-31T06:10:44.885Z</time>
      </trkpt>
      <trkpt lat="40.53606" lon="44.38735">
        <ele>1950.28905</ele>
        <time>2021-10-31T06:11:50.903Z</time>
      </trkpt>
      <trkpt lat="40.53802" lon="44.38619">
        <ele>1951.978095</ele>
        <time>2021-10-31T06:12:57.881Z</time>
      </trkpt>
      <trkpt lat="40.54047" lon="44.3845">
        <ele>1944.4897</ele>
        <time>2021-10-31T06:13:37.885Z</time>
      </trkpt>
      <trkpt lat="40.54214" lon="44.3821">
        <ele>1940.069133</ele>
        <time>2021-10-31T06:14:09.887Z</time>
      </trkpt>
      <trkpt lat="40.54355" lon="44.38009">
        <ele>1944.043994</ele>
        <time>2021-10-31T06:15:09.922Z</time>
      </trkpt>
      <trkpt lat="40.545" lon="44.37842">
        <ele>1948.837446</ele>
        <time>2021-10-31T06:16:09.903Z</time>
      </trkpt>
      <trkpt lat="40.54645" lon="44.37679">
        <ele>1951.578539</ele>
        <time>2021-10-31T06:17:09.931Z</time>
      </trkpt>
      <trkpt lat="40.54796" lon="44.37509">
        <ele>1955.098281</ele>
        <time>2021-10-31T06:18:09.917Z</time>
      </trkpt>
      <trkpt lat="40.54991" lon="44.37362">
        <ele>1957.846656</ele>
        <time>2021-10-31T06:19:09.890Z</time>
      </trkpt>
      <trkpt lat="40.55158" lon="44.37222">
        <ele>1964.359485</ele>
        <time>2021-10-31T06:20:09.893Z</time>
      </trkpt>
      <trkpt lat="40.5533" lon="44.37062">
        <ele>1970.991779</ele>
        <time>2021-10-31T06:21:13.877Z</time>
      </trkpt>
      <trkpt lat="40.55522" lon="44.36921">
        <ele>1976.22082</ele>
        <time>2021-10-31T06:22:31.862Z</time>
      </trkpt>
      <trkpt lat="40.55705" lon="44.36788">
        <ele>1979.041422</ele>
        <time>2021-10-31T06:23:42.878Z</time>
      </trkpt>
      <trkpt lat="40.55905" lon="44.36695">
        <ele>1974.067638</ele>
        <time>2021-10-31T06:24:27.878Z</time>
      </trkpt>
      <trkpt lat="40.56116" lon="44.36611">
        <ele>1972.895215</ele>
        <time>2021-10-31T06:25:08.873Z</time>
      </trkpt>
      <trkpt lat="40.56334" lon="44.36524">
        <ele>1974.29134</ele>
        <time>2021-10-31T06:25:55.908Z</time>
      </trkpt>
      <trkpt lat="40.56542" lon="44.3644">
        <ele>1976.342474</ele>
        <time>2021-10-31T06:26:38.885Z</time>
      </trkpt>
      <trkpt lat="40.5675" lon="44.36344">
        <ele>1978.219584</ele>
        <time>2021-10-31T06:27:37.883Z</time>
      </trkpt>
      <trkpt lat="40.56973" lon="44.36225">
        <ele>1979.350308</ele>
        <time>2021-10-31T06:28:36.874Z</time>
      </trkpt>
      <trkpt lat="40.57171" lon="44.3612">
        <ele>1979.417225</ele>
        <time>2021-10-31T06:29:26.891Z</time>
      </trkpt>
      <trkpt lat="40.57414" lon="44.36007">
        <ele>1973.444489</ele>
        <time>2021-10-31T06:30:06.896Z</time>
      </trkpt>
      <trkpt lat="40.5761" lon="44.35982">
        <ele>1968.913215</ele>
        <time>2021-10-31T06:40:48.876Z</time>
      </trkpt>
      <trkpt lat="40.57897" lon="44.35956">
        <ele>1957.210276</ele>
        <time>2021-10-31T06:41:28.887Z</time>
      </trkpt>
      <trkpt lat="40.58217" lon="44.35921">
        <ele>1940.506103</ele>
        <time>2021-10-31T06:42:08.869Z</time>
      </trkpt>
      <trkpt lat="40.58494" lon="44.35889">
        <ele>1929.0724</ele>
        <time>2021-10-31T06:42:45.890Z</time>
      </trkpt>
      <trkpt lat="40.58772" lon="44.35818">
        <ele>1920.835239</ele>
        <time>2021-10-31T06:43:25.882Z</time>
      </trkpt>
      <trkpt lat="40.59005" lon="44.35781">
        <ele>1922.06878</ele>
        <time>2021-10-31T06:44:08.895Z</time>
      </trkpt>
      <trkpt lat="40.59191" lon="44.35646">
        <ele>1914.275401</ele>
        <time>2021-10-31T06:44:59.879Z</time>
      </trkpt>
      <trkpt lat="40.59379" lon="44.35538">
        <ele>1924.471766</ele>
        <time>2021-10-31T06:46:09.912Z</time>
      </trkpt>
      <trkpt lat="40.59588" lon="44.35518">
        <ele>1933.303989</ele>
        <time>2021-10-31T06:47:27.886Z</time>
      </trkpt>
      <trkpt lat="40.59782" lon="44.35488">
        <ele>1932.895898</ele>
        <time>2021-10-31T06:48:51.892Z</time>
      </trkpt>
      <trkpt lat="40.59988" lon="44.35506">
        <ele>1933.385221</ele>
        <time>2021-10-31T06:50:13.881Z</time>
      </trkpt>
      <trkpt lat="40.60181" lon="44.35439">
        <ele>1942.525155</ele>
        <time>2021-10-31T06:51:53.895Z</time>
      </trkpt>
      <trkpt lat="40.60361" lon="44.35333">
        <ele>1956.649547</ele>
        <time>2021-10-31T06:53:58.904Z</time>
      </trkpt>
      <trkpt lat="40.60515" lon="44.35187">
        <ele>1976.415962</ele>
        <time>2021-10-31T06:56:03.902Z</time>
      </trkpt>
      <trkpt lat="40.60649" lon="44.35006">
        <ele>1986.594455</ele>
        <time>2021-10-31T06:58:08.887Z</time>
      </trkpt>
      <trkpt lat="40.60696" lon="44.34758">
        <ele>1987.553241</ele>
        <time>2021-10-31T06:59:56.918Z</time>
      </trkpt>
      <trkpt lat="40.60747" lon="44.34508">
        <ele>1993.710581</ele>
        <time>2021-10-31T07:01:30.894Z</time>
      </trkpt>
      <trkpt lat="40.60865" lon="44.34275">
        <ele>1999.139303</ele>
        <time>2021-10-31T07:02:47.883Z</time>
      </trkpt>
      <trkpt lat="40.61016" lon="44.34076">
        <ele>2000.631768</ele>
        <time>2021-10-31T07:03:32.865Z</time>
      </trkpt>
      <trkpt lat="40.61156" lon="44.33877">
        <ele>1999.268232</ele>
        <time>2021-10-31T07:04:12.878Z</time>
      </trkpt>
      <trkpt lat="40.61326" lon="44.33665">
        <ele>1994.595904</ele>
        <time>2021-10-31T07:04:52.895Z</time>
      </trkpt>
      <trkpt lat="40.61487" lon="44.33481">
        <ele>1991.302092</ele>
        <time>2021-10-31T07:05:30.893Z</time>
      </trkpt>
      <trkpt lat="40.61657" lon="44.33251">
        <ele>1985.123245</ele>
        <time>2021-10-31T07:05:59.885Z</time>
      </trkpt>
      <trkpt lat="40.61839" lon="44.33069">
        <ele>1979.762889</ele>
        <time>2021-10-31T07:06:19.927Z</time>
      </trkpt>
      <trkpt lat="40.62025" lon="44.32925">
        <ele>1989.985086</ele>
        <time>2021-10-31T07:07:28.899Z</time>
      </trkpt>
      <trkpt lat="40.62227" lon="44.3289">
        <ele>1998.656922</ele>
        <time>2021-10-31T07:09:07.908Z</time>
      </trkpt>
      <trkpt lat="40.62424" lon="44.32853">
        <ele>2008.231332</ele>
        <time>2021-10-31T07:10:50.940Z</time>
      </trkpt>
      <trkpt lat="40.62593" lon="44.3272">
        <ele>2019.161926</ele>
        <time>2021-10-31T07:12:38.930Z</time>
      </trkpt>
      <trkpt lat="40.6272" lon="44.32506">
        <ele>2020.856819</ele>
        <time>2021-10-31T07:14:06.910Z</time>
      </trkpt>
      <trkpt lat="40.6285" lon="44.32277">
        <ele>2022.353011</ele>
        <time>2021-10-31T07:15:09.900Z</time>
      </trkpt>
      <trkpt lat="40.62969" lon="44.32066">
        <ele>2027.753709</ele>
        <time>2021-10-31T07:16:22.925Z</time>
      </trkpt>
      <trkpt lat="40.63102" lon="44.3187">
        <ele>2036.875443</ele>
        <time>2021-10-31T07:17:56.910Z</time>
      </trkpt>
      <trkpt lat="40.63269" lon="44.31698">
        <ele>2041.146457</ele>
        <time>2021-10-31T07:19:09.917Z</time>
      </trkpt>
      <trkpt lat="40.63449" lon="44.3155">
        <ele>2046.042777</ele>
        <time>2021-10-31T07:20:29.929Z</time>
      </trkpt>
      <trkpt lat="40.63646" lon="44.31507">
        <ele>2054.511805</ele>
        <time>2021-10-31T07:22:13.898Z</time>
      </trkpt>
      <trkpt lat="40.63837" lon="44.31462">
        <ele>2065.761099</ele>
        <time>2021-10-31T07:24:03.900Z</time>
      </trkpt>
      <trkpt lat="40.63948" lon="44.31243">
        <ele>2076.687455</ele>
        <time>2021-10-31T07:25:55.903Z</time>
      </trkpt>
      <trkpt lat="40.64038" lon="44.30996">
        <ele>2080.031795</ele>
        <time>2021-10-31T07:27:04.898Z</time>
      </trkpt>
      <trkpt lat="40.64138" lon="44.3075">
        <ele>2083.22634</ele>
        <time>2021-10-31T07:28:21.899Z</time>
      </trkpt>
      <trkpt lat="40.64273" lon="44.30538">
        <ele>2081.847903</ele>
        <time>2021-10-31T07:29:03.902Z</time>
      </trkpt>
      <trkpt lat="40.64475" lon="44.30483">
        <ele>2082.533261</ele>
        <time>2021-10-31T07:29:46.914Z</time>
      </trkpt>
      <trkpt lat="40.64662" lon="44.30451">
        <ele>2083.693387</ele>
        <time>2021-10-31T07:30:26.904Z</time>
      </trkpt>
      <trkpt lat="40.64875" lon="44.30386">
        <ele>2082.617381</ele>
        <time>2021-10-31T07:31:25.944Z</time>
      </trkpt>
      <trkpt lat="40.65082" lon="44.30275">
        <ele>2076.011823</ele>
        <time>2021-10-31T07:32:05.916Z</time>
      </trkpt>
      <trkpt lat="40.65347" lon="44.30172">
        <ele>2061.148679</ele>
        <time>2021-10-31T07:32:45.908Z</time>
      </trkpt>
      <trkpt lat="40.65602" lon="44.30106">
        <ele>2058.276608</ele>
        <time>2021-10-31T07:33:25.899Z</time>
      </trkpt>
      <trkpt lat="40.65817" lon="44.3004">
        <ele>2059.657533</ele>
        <time>2021-10-31T07:34:26.923Z</time>
      </trkpt>
      <trkpt lat="40.66026" lon="44.29953">
        <ele>2060.840037</ele>
        <time>2021-10-31T07:35:24.880Z</time>
      </trkpt>
      <trkpt lat="40.66248" lon="44.29834">
        <ele>2062.12957</ele>
        <time>2021-10-31T07:36:23.894Z</time>
      </trkpt>
      <trkpt lat="40.66453" lon="44.29709">
        <ele>2063.397461</ele>
        <time>2021-10-31T07:37:15.895Z</time>
      </trkpt>
      <trkpt lat="40.66629" lon="44.29608">
        <ele>2064.933919</ele>
        <time>2021-10-31T07:37:57.915Z</time>
      </trkpt>
      <trkpt lat="40.66816" lon="44.29502">
        <ele>2064.087444</ele>
        <time>2021-10-31T07:38:37.894Z</time>
      </trkpt>
      <trkpt lat="40.67016" lon="44.29393">
        <ele>2065.042506</ele>
        <time>2021-10-31T07:39:17.893Z</time>
      </trkpt>
      <trkpt lat="40.67236" lon="44.29271">
        <ele>2068.194713</ele>
        <time>2021-10-31T07:40:14.904Z</time>
      </trkpt>
      <trkpt lat="40.67437" lon="44.29164">
        <ele>2066.833255</ele>
        <time>2021-10-31T07:41:01.901Z</time>
      </trkpt>
      <trkpt lat="40.67627" lon="44.29063">
        <ele>2065.451802</ele>
        <time>2021-10-31T07:41:41.944Z</time>
      </trkpt>
      <trkpt lat="40.67813" lon="44.28967">
        <ele>2064.884607</ele>
        <time>2021-10-31T07:42:21.933Z</time>
      </trkpt>
      <trkpt lat="40.68016" lon="44.2886">
        <ele>2068.010961</ele>
        <time>2021-10-31T07:43:09.903Z</time>
      </trkpt>
      <trkpt lat="40.67968" lon="44.28658">
        <ele>2068.410506</ele>
        <time>2021-10-31T07:44:12.892Z</time>
      </trkpt>
      <trkpt lat="40.67827" lon="44.28447">
        <ele>2071.950131</ele>
        <time>2021-10-31T07:45:27.931Z</time>
      </trkpt>
      <trkpt lat="40.67684" lon="44.28241">
        <ele>2073.33529</ele>
        <time>2021-10-31T07:46:42.896Z</time>
      </trkpt>
      <trkpt lat="40.67537" lon="44.28015">
        <ele>2073.518459</ele>
        <time>2021-10-31T07:47:38.897Z</time>
      </trkpt>
      <trkpt lat="40.67389" lon="44.2778">
        <ele>2069.988369</ele>
        <time>2021-10-31T07:48:28.910Z</time>
      </trkpt>
      <trkpt lat="40.67245" lon="44.27549">
        <ele>2071.508836</ele>
        <time>2021-10-31T07:49:26.914Z</time>
      </trkpt>
      <trkpt lat="40.67106" lon="44.27333">
        <ele>2073.304378</ele>
        <time>2021-10-31T07:50:26.903Z</time>
      </trkpt>
      <trkpt lat="40.66961" lon="44.2709">
        <ele>2073.620573</ele>
        <time>2021-10-31T07:51:21.880Z</time>
      </trkpt>
      <trkpt lat="40.66824" lon="44.26861">
        <ele>2074.760457</ele>
        <time>2021-10-31T07:52:12.916Z</time>
      </trkpt>
      <trkpt lat="40.66689" lon="44.26642">
        <ele>2072.34086</ele>
        <time>2021-10-31T07:52:57.900Z</time>
      </trkpt>
      <trkpt lat="40.66552" lon="44.26409">
        <ele>2071.387478</ele>
        <time>2021-10-31T07:53:42.889Z</time>
      </trkpt>
      <trkpt lat="40.66413" lon="44.26174">
        <ele>2075.108398</ele>
        <time>2021-10-31T07:54:41.899Z</time>
      </trkpt>
      <trkpt lat="40.66266" lon="44.25925">
        <ele>2077.156154</ele>
        <time>2021-10-31T07:55:40.915Z</time>
      </trkpt>
      <trkpt lat="40.66135" lon="44.25699">
        <ele>2078.414085</ele>
        <time>2021-10-31T07:56:37.906Z</time>
      </trkpt>
      <trkpt lat="40.66003" lon="44.25472">
        <ele>2081.612258</ele>
        <time>2021-10-31T07:57:35.947Z</time>
      </trkpt>
      <trkpt lat="40.65874" lon="44.25243">
        <ele>2083.835102</ele>
        <time>2021-10-31T07:58:33.928Z</time>
      </trkpt>
      <trkpt lat="40.65739" lon="44.25008">
        <ele>2085.184056</ele>
        <time>2021-10-31T07:59:38.899Z</time>
      </trkpt>
      <trkpt lat="40.65621" lon="44.24792">
        <ele>2086.970414</ele>
        <time>2021-10-31T08:00:47.947Z</time>
      </trkpt>
      <trkpt lat="40.65553" lon="44.24528">
        <ele>2087.027807</ele>
        <time>2021-10-31T08:01:49.913Z</time>
      </trkpt>
      <trkpt lat="40.65494" lon="44.24271">
        <ele>2089.638824</ele>
        <time>2021-10-31T08:02:49.909Z</time>
      </trkpt>
      <trkpt lat="40.65419" lon="44.24004">
        <ele>2091.841413</ele>
        <time>2021-10-31T08:03:48.909Z</time>
      </trkpt>
      <trkpt lat="40.65278" lon="44.23796">
        <ele>2092.923864</ele>
        <time>2021-10-31T08:04:44.925Z</time>
      </trkpt>
      <trkpt lat="40.65155" lon="44.23572">
        <ele>2095.018127</ele>
        <time>2021-10-31T08:05:48.912Z</time>
      </trkpt>
      <trkpt lat="40.65108" lon="44.23318">
        <ele>2095.766995</ele>
        <time>2021-10-31T08:06:48.915Z</time>
      </trkpt>
      <trkpt lat="40.65062" lon="44.23069">
        <ele>2099.93474</ele>
        <time>2021-10-31T08:07:48.949Z</time>
      </trkpt>
      <trkpt lat="40.65014" lon="44.22791">
        <ele>2104.395292</ele>
        <time>2021-10-31T08:25:27.951Z</time>
      </trkpt>
      <trkpt lat="40.64966" lon="44.22528">
        <ele>2106.321886</ele>
        <time>2021-10-31T08:26:35.915Z</time>
      </trkpt>
      <trkpt lat="40.64919" lon="44.22258">
        <ele>2109.576936</ele>
        <time>2021-10-31T08:27:46.912Z</time>
      </trkpt>
      <trkpt lat="40.64867" lon="44.21967">
        <ele>2111.465901</ele>
        <time>2021-10-31T08:29:05.914Z</time>
      </trkpt>
      <trkpt lat="40.64818" lon="44.21686">
        <ele>2114.191677</ele>
        <time>2021-10-31T08:30:21.936Z</time>
      </trkpt>
      <trkpt lat="40.64771" lon="44.21418">
        <ele>2118.757259</ele>
        <time>2021-10-31T08:31:35.898Z</time>
      </trkpt>
      <trkpt lat="40.64721" lon="44.21144">
        <ele>2119.969213</ele>
        <time>2021-10-31T08:32:50.901Z</time>
      </trkpt>
      <trkpt lat="40.64673" lon="44.20879">
        <ele>2121.20857</ele>
        <time>2021-10-31T08:34:03.920Z</time>
      </trkpt>
      <trkpt lat="40.64626" lon="44.20617">
        <ele>2123.931853</ele>
        <time>2021-10-31T08:35:23.918Z</time>
      </trkpt>
      <trkpt lat="40.64579" lon="44.20367">
        <ele>2127.725402</ele>
        <time>2021-10-31T08:36:44.923Z</time>
      </trkpt>
      <trkpt lat="40.64532" lon="44.20113">
        <ele>2131.908766</ele>
        <time>2021-10-31T08:38:04.917Z</time>
      </trkpt>
      <trkpt lat="40.64487" lon="44.19856">
        <ele>2134.649138</ele>
        <time>2021-10-31T08:39:23.971Z</time>
      </trkpt>
      <trkpt lat="40.64439" lon="44.19596">
        <ele>2138.639414</ele>
        <time>2021-10-31T08:40:43.913Z</time>
      </trkpt>
      <trkpt lat="40.64392" lon="44.19328">
        <ele>2141.142814</ele>
        <time>2021-10-31T08:42:03.911Z</time>
      </trkpt>
      <trkpt lat="40.64393" lon="44.19059">
        <ele>2142.985113</ele>
        <time>2021-10-31T08:43:13.941Z</time>
      </trkpt>
      <trkpt lat="40.6441" lon="44.18803">
        <ele>2143.88414</ele>
        <time>2021-10-31T08:44:16.914Z</time>
      </trkpt>
      <trkpt lat="40.6442" lon="44.18537">
        <ele>2144.990472</ele>
        <time>2021-10-31T08:45:21.936Z</time>
      </trkpt>
      <trkpt lat="40.64429" lon="44.18269">
        <ele>2146.075239</ele>
        <time>2021-10-31T08:46:21.971Z</time>
      </trkpt>
      <trkpt lat="40.64441" lon="44.18">
        <ele>2146.709711</ele>
        <time>2021-10-31T08:47:21.919Z</time>
      </trkpt>
      <trkpt lat="40.64457" lon="44.17694">
        <ele>2146.300542</ele>
        <time>2021-10-31T08:48:22.966Z</time>
      </trkpt>
      <trkpt lat="40.64471" lon="44.17428">
        <ele>2144.992951</ele>
        <time>2021-10-31T08:49:06.939Z</time>
      </trkpt>
      <trkpt lat="40.64485" lon="44.17171">
        <ele>2143.414693</ele>
        <time>2021-10-31T08:49:46.921Z</time>
      </trkpt>
      <trkpt lat="40.64499" lon="44.16884">
        <ele>2139.270551</ele>
        <time>2021-10-31T08:50:26.964Z</time>
      </trkpt>
      <trkpt lat="40.6459" lon="44.16588">
        <ele>2132.118717</ele>
        <time>2021-10-31T08:51:06.919Z</time>
      </trkpt>
      <trkpt lat="40.64694" lon="44.163">
        <ele>2124.66904</ele>
        <time>2021-10-31T08:51:46.923Z</time>
      </trkpt>
      <trkpt lat="40.64793" lon="44.16031">
        <ele>2121.109462</ele>
        <time>2021-10-31T08:52:24.934Z</time>
      </trkpt>
      <trkpt lat="40.64882" lon="44.15789">
        <ele>2115.874036</ele>
        <time>2021-10-31T08:53:04.944Z</time>
      </trkpt>
      <trkpt lat="40.64966" lon="44.15557">
        <ele>2109.992381</ele>
        <time>2021-10-31T08:53:45.931Z</time>
      </trkpt>
      <trkpt lat="40.65054" lon="44.15313">
        <ele>2106.688904</ele>
        <time>2021-10-31T08:54:28.950Z</time>
      </trkpt>
      <trkpt lat="40.65148" lon="44.15054">
        <ele>2102.439325</ele>
        <time>2021-10-31T08:55:08.931Z</time>
      </trkpt>
      <trkpt lat="40.65228" lon="44.14798">
        <ele>2098.756573</ele>
        <time>2021-10-31T08:55:48.917Z</time>
      </trkpt>
      <trkpt lat="40.65275" lon="44.14535">
        <ele>2096.451078</ele>
        <time>2021-10-31T08:56:28.919Z</time>
      </trkpt>
      <trkpt lat="40.65287" lon="44.14263">
        <ele>2093.821432</ele>
        <time>2021-10-31T08:57:08.943Z</time>
      </trkpt>
      <trkpt lat="40.65295" lon="44.13996">
        <ele>2091.011749</ele>
        <time>2021-10-31T08:57:48.907Z</time>
      </trkpt>
      <trkpt lat="40.65311" lon="44.13701">
        <ele>2088.813</ele>
        <time>2021-10-31T08:58:28.919Z</time>
      </trkpt>
      <trkpt lat="40.6531" lon="44.13414">
        <ele>2089.006311</ele>
        <time>2021-10-31T08:59:22.969Z</time>
      </trkpt>
      <trkpt lat="40.65309" lon="44.13127">
        <ele>2089.461747</ele>
        <time>2021-10-31T09:00:22.927Z</time>
      </trkpt>
      <trkpt lat="40.65329" lon="44.12863">
        <ele>2087.506536</ele>
        <time>2021-10-31T09:01:05.934Z</time>
      </trkpt>
      <trkpt lat="40.65341" lon="44.12567">
        <ele>2086.694397</ele>
        <time>2021-10-31T09:01:58.940Z</time>
      </trkpt>
      <trkpt lat="40.65341" lon="44.12299">
        <ele>2083.793839</ele>
        <time>2021-10-31T09:02:41.930Z</time>
      </trkpt>
      <trkpt lat="40.6535" lon="44.11995">
        <ele>2078.374343</ele>
        <time>2021-10-31T09:03:21.933Z</time>
      </trkpt>
      <trkpt lat="40.65352" lon="44.11694">
        <ele>2078.480293</ele>
        <time>2021-10-31T09:04:13.935Z</time>
      </trkpt>
      <trkpt lat="40.65339" lon="44.11424">
        <ele>2078.294977</ele>
        <time>2021-10-31T09:04:57.932Z</time>
      </trkpt>
      <trkpt lat="40.65326" lon="44.11175">
        <ele>2075.550471</ele>
        <time>2021-10-31T09:05:37.935Z</time>
      </trkpt>
      <trkpt lat="40.65322" lon="44.10907">
        <ele>2073.37248</ele>
        <time>2021-10-31T09:06:17.932Z</time>
      </trkpt>
      <trkpt lat="40.65298" lon="44.10584">
        <ele>2070.736608</ele>
        <time>2021-10-31T09:06:58.930Z</time>
      </trkpt>
      <trkpt lat="40.65314" lon="44.10309">
        <ele>2065.346741</ele>
        <time>2021-10-31T09:07:38.925Z</time>
      </trkpt>
      <trkpt lat="40.65358" lon="44.10012">
        <ele>2061.834185</ele>
        <time>2021-10-31T09:08:23.934Z</time>
      </trkpt>
      <trkpt lat="40.65407" lon="44.09635">
        <ele>2050.818113</ele>
        <time>2021-10-31T09:09:03.955Z</time>
      </trkpt>
      <trkpt lat="40.65443" lon="44.09343">
        <ele>2050.900029</ele>
        <time>2021-10-31T09:09:58.956Z</time>
      </trkpt>
      <trkpt lat="40.65489" lon="44.08976">
        <ele>2047.296468</ele>
        <time>2021-10-31T09:10:42.942Z</time>
      </trkpt>
      <trkpt lat="40.65525" lon="44.08684">
        <ele>2040.230783</ele>
        <time>2021-10-31T09:11:22.929Z</time>
      </trkpt>
      <trkpt lat="40.65561" lon="44.08393">
        <ele>2037.760384</ele>
        <time>2021-10-31T09:12:02.929Z</time>
      </trkpt>
      <trkpt lat="40.65655" lon="44.08066">
        <ele>2030.570919</ele>
        <time>2021-10-31T09:12:42.931Z</time>
      </trkpt>
      <trkpt lat="40.65679" lon="44.07724">
        <ele>2023.239534</ele>
        <time>2021-10-31T09:13:20.972Z</time>
      </trkpt>
      <trkpt lat="40.65486" lon="44.07415">
        <ele>2020.507318</ele>
        <time>2021-10-31T09:14:00.003Z</time>
      </trkpt>
      <trkpt lat="40.65345" lon="44.07199">
        <ele>2017.112748</ele>
        <time>2021-10-31T09:14:59.947Z</time>
      </trkpt>
      <trkpt lat="40.65208" lon="44.06985">
        <ele>2020.609526</ele>
        <time>2021-10-31T09:16:03.928Z</time>
      </trkpt>
      <trkpt lat="40.65081" lon="44.06769">
        <ele>2022.311301</ele>
        <time>2021-10-31T09:17:24.934Z</time>
      </trkpt>
      <trkpt lat="40.64958" lon="44.06495">
        <ele>2018.753004</ele>
        <time>2021-10-31T09:18:14.935Z</time>
      </trkpt>
      <trkpt lat="40.6486" lon="44.06167">
        <ele>2004.349757</ele>
        <time>2021-10-31T09:18:53.923Z</time>
      </trkpt>
      <trkpt lat="40.6476" lon="44.05911">
        <ele>1998.638711</ele>
        <time>2021-10-31T09:19:39.941Z</time>
      </trkpt>
      <trkpt lat="40.64647" lon="44.05658">
        <ele>1988.327452</ele>
        <time>2021-10-31T09:20:19.934Z</time>
      </trkpt>
      <trkpt lat="40.64496" lon="44.05408">
        <ele>1977.239166</ele>
        <time>2021-10-31T09:21:06.938Z</time>
      </trkpt>
      <trkpt lat="40.64391" lon="44.0515">
        <ele>1979.501352</ele>
        <time>2021-10-31T09:22:07.938Z</time>
      </trkpt>
      <trkpt lat="40.64368" lon="44.04854">
        <ele>1978.762428</ele>
        <time>2021-10-31T09:22:52.943Z</time>
      </trkpt>
      <trkpt lat="40.64274" lon="44.04613">
        <ele>1980.37875</ele>
        <time>2021-10-31T09:23:56.939Z</time>
      </trkpt>
      <trkpt lat="40.6415" lon="44.04388">
        <ele>1979.224204</ele>
        <time>2021-10-31T09:24:59.935Z</time>
      </trkpt>
      <trkpt lat="40.64155" lon="44.04117">
        <ele>1995.236713</ele>
        <time>2021-10-31T09:26:36.972Z</time>
      </trkpt>
      <trkpt lat="40.6414" lon="44.03826">
        <ele>1991.463053</ele>
        <time>2021-10-31T09:27:48.936Z</time>
      </trkpt>
      <trkpt lat="40.63966" lon="44.03619">
        <ele>1980.225617</ele>
        <time>2021-10-31T09:28:35.921Z</time>
      </trkpt>
      <trkpt lat="40.63729" lon="44.03434">
        <ele>1976.721755</ele>
        <time>2021-10-31T09:29:19.975Z</time>
      </trkpt>
      <trkpt lat="40.63562" lon="44.03301">
        <ele>1988.572945</ele>
        <time>2021-10-31T09:31:21.950Z</time>
      </trkpt>
      <trkpt lat="40.63396" lon="44.03168">
        <ele>1998.609639</ele>
        <time>2021-10-31T09:33:39.943Z</time>
      </trkpt>
      <trkpt lat="40.63226" lon="44.03033">
        <ele>2004.466831</ele>
        <time>2021-10-31T09:35:38.939Z</time>
      </trkpt>
      <trkpt lat="40.63042" lon="44.02916">
        <ele>2007.373003</ele>
        <time>2021-10-31T09:37:06.973Z</time>
      </trkpt>
      <trkpt lat="40.62844" lon="44.0279">
        <ele>2009.433587</ele>
        <time>2021-10-31T09:38:06.942Z</time>
      </trkpt>
      <trkpt lat="40.6266" lon="44.02669">
        <ele>2010.882741</ele>
        <time>2021-10-31T09:39:17.944Z</time>
      </trkpt>
      <trkpt lat="40.62485" lon="44.02463">
        <ele>2000.881473</ele>
        <time>2021-10-31T09:39:55.952Z</time>
      </trkpt>
      <trkpt lat="40.62371" lon="44.02151">
        <ele>1994.141913</ele>
        <time>2021-10-31T09:40:30.937Z</time>
      </trkpt>
      <trkpt lat="40.62253" lon="44.01898">
        <ele>1993.756993</ele>
        <time>2021-10-31T09:41:22.951Z</time>
      </trkpt>
      <trkpt lat="40.6202" lon="44.01706">
        <ele>1980.260778</ele>
        <time>2021-10-31T09:42:02.936Z</time>
      </trkpt>
      <trkpt lat="40.61836" lon="44.01535">
        <ele>1977.382688</ele>
        <time>2021-10-31T09:42:50.948Z</time>
      </trkpt>
      <trkpt lat="40.61842" lon="44.01256">
        <ele>1984.060433</ele>
        <time>2021-10-31T09:43:52.959Z</time>
      </trkpt>
      <trkpt lat="40.61862" lon="44.00986">
        <ele>1986.498064</ele>
        <time>2021-10-31T09:44:54.956Z</time>
      </trkpt>
      <trkpt lat="40.61881" lon="44.00707">
        <ele>1985.79306</ele>
        <time>2021-10-31T09:45:54.952Z</time>
      </trkpt>
      <trkpt lat="40.61924" lon="44.00392">
        <ele>1972.442093</ele>
        <time>2021-10-31T09:46:34.948Z</time>
      </trkpt>
      <trkpt lat="40.61985" lon="44.00096">
        <ele>1954.798864</ele>
        <time>2021-10-31T09:47:02.955Z</time>
      </trkpt>
      <trkpt lat="40.62048" lon="43.99771">
        <ele>1946.847356</ele>
        <time>2021-10-31T09:47:38.955Z</time>
      </trkpt>
      <trkpt lat="40.62063" lon="43.99483">
        <ele>1944.970314</ele>
        <time>2021-10-31T09:48:18.957Z</time>
      </trkpt>
      <trkpt lat="40.6209" lon="43.99209">
        <ele>1949.76026</ele>
        <time>2021-10-31T10:03:25.952Z</time>
      </trkpt>
      <trkpt lat="40.6212" lon="43.98835">
        <ele>1932.769943</ele>
        <time>2021-10-31T10:04:07.961Z</time>
      </trkpt>
      <trkpt lat="40.62187" lon="43.98445">
        <ele>1900.846073</ele>
        <time>2021-10-31T10:04:45.944Z</time>
      </trkpt>
      <trkpt lat="40.6235" lon="43.9815">
        <ele>1875.927267</ele>
        <time>2021-10-31T10:05:18.988Z</time>
      </trkpt>
      <trkpt lat="40.62506" lon="43.97866">
        <ele>1855.182134</ele>
        <time>2021-10-31T10:05:54.983Z</time>
      </trkpt>
      <trkpt lat="40.62656" lon="43.97601">
        <ele>1838.585712</ele>
        <time>2021-10-31T10:06:36.952Z</time>
      </trkpt>
      <trkpt lat="40.62783" lon="43.97321">
        <ele>1812.879006</ele>
        <time>2021-10-31T10:07:20.966Z</time>
      </trkpt>
      <trkpt lat="40.62941" lon="43.97135">
        <ele>1805.701938</ele>
        <time>2021-10-31T10:08:15.950Z</time>
      </trkpt>
      <trkpt lat="40.62843" lon="43.96964">
        <ele>1791.676417</ele>
        <time>2021-10-31T10:09:01.957Z</time>
      </trkpt>
      <trkpt lat="40.62629" lon="43.97025">
        <ele>1784.157471</ele>
        <time>2021-10-31T10:09:57.957Z</time>
      </trkpt>
      <trkpt lat="40.62395" lon="43.96974">
        <ele>1784.510904</ele>
        <time>2021-10-31T10:10:43.960Z</time>
      </trkpt>
      <trkpt lat="40.62179" lon="43.9692">
        <ele>1795.437638</ele>
        <time>2021-10-31T10:11:44.941Z</time>
      </trkpt>
      <trkpt lat="40.62012" lon="43.96843">
        <ele>1800.749276</ele>
        <time>2021-10-31T10:13:14.957Z</time>
      </trkpt>
      <trkpt lat="40.61995" lon="43.96575">
        <ele>1789.553516</ele>
        <time>2021-10-31T10:14:07.939Z</time>
      </trkpt>
      <trkpt lat="40.62004" lon="43.96268">
        <ele>1774.114336</ele>
        <time>2021-10-31T10:14:47.964Z</time>
      </trkpt>
      <trkpt lat="40.62205" lon="43.96224">
        <ele>1764.615773</ele>
        <time>2021-10-31T10:15:38.951Z</time>
      </trkpt>
      <trkpt lat="40.62401" lon="43.96106">
        <ele>1762.644833</ele>
        <time>2021-10-31T10:16:30.962Z</time>
      </trkpt>
      <trkpt lat="40.62593" lon="43.95798">
        <ele>1750.375219</ele>
        <time>2021-10-31T10:17:10.945Z</time>
      </trkpt>
      <trkpt lat="40.62789" lon="43.95509">
        <ele>1740.305067</ele>
        <time>2021-10-31T10:17:50.944Z</time>
      </trkpt>
      <trkpt lat="40.62972" lon="43.95269">
        <ele>1736.44579</ele>
        <time>2021-10-31T10:18:30.945Z</time>
      </trkpt>
      <trkpt lat="40.63178" lon="43.94999">
        <ele>1728.986798</ele>
        <time>2021-10-31T10:19:10.951Z</time>
      </trkpt>
      <trkpt lat="40.6338" lon="43.94736">
        <ele>1720.836056</ele>
        <time>2021-10-31T10:19:50.961Z</time>
      </trkpt>
      <trkpt lat="40.63565" lon="43.94498">
        <ele>1717.478938</ele>
        <time>2021-10-31T10:20:28.965Z</time>
      </trkpt>
      <trkpt lat="40.63724" lon="43.94289">
        <ele>1714.397966</ele>
        <time>2021-10-31T10:21:08.951Z</time>
      </trkpt>
      <trkpt lat="40.63882" lon="43.94081">
        <ele>1711.517365</ele>
        <time>2021-10-31T10:21:48.984Z</time>
      </trkpt>
      <trkpt lat="40.64042" lon="43.93874">
        <ele>1706.200189</ele>
        <time>2021-10-31T10:22:28.943Z</time>
      </trkpt>
      <trkpt lat="40.642" lon="43.93669">
        <ele>1703.831996</ele>
        <time>2021-10-31T10:23:16.961Z</time>
      </trkpt>
      <trkpt lat="40.64394" lon="43.93496">
        <ele>1696.752992</ele>
        <time>2021-10-31T10:23:56.957Z</time>
      </trkpt>
      <trkpt lat="40.64575" lon="43.93341">
        <ele>1695.475593</ele>
        <time>2021-10-31T10:24:41.953Z</time>
      </trkpt>
      <trkpt lat="40.64772" lon="43.93233">
        <ele>1696.32007</ele>
        <time>2021-10-31T10:25:32.959Z</time>
      </trkpt>
      <trkpt lat="40.65002" lon="43.93015">
        <ele>1686.282213</ele>
        <time>2021-10-31T10:26:12.956Z</time>
      </trkpt>
      <trkpt lat="40.65233" lon="43.9277">
        <ele>1671.895698</ele>
        <time>2021-10-31T10:26:52.946Z</time>
      </trkpt>
      <trkpt lat="40.65371" lon="43.92477">
        <ele>1656.131459</ele>
        <time>2021-10-31T10:27:30.953Z</time>
      </trkpt>
      <trkpt lat="40.65419" lon="43.92144">
        <ele>1648.738545</ele>
        <time>2021-10-31T10:28:05.951Z</time>
      </trkpt>
      <trkpt lat="40.65458" lon="43.91894">
        <ele>1648.982684</ele>
        <time>2021-10-31T10:28:47.001Z</time>
      </trkpt>
      <trkpt lat="40.65522" lon="43.91596">
        <ele>1644.94797</ele>
        <time>2021-10-31T10:29:24.986Z</time>
      </trkpt>
      <trkpt lat="40.65586" lon="43.91353">
        <ele>1638.394158</ele>
        <time>2021-10-31T10:29:44.938Z</time>
      </trkpt>
      <trkpt lat="40.65648" lon="43.91092">
        <ele>1633.813643</ele>
        <time>2021-10-31T10:30:06.943Z</time>
      </trkpt>
      <trkpt lat="40.65716" lon="43.90781">
        <ele>1630.480307</ele>
        <time>2021-10-31T10:30:45.949Z</time>
      </trkpt>
      <trkpt lat="40.65763" lon="43.90518">
        <ele>1628.37569</ele>
        <time>2021-10-31T10:31:27.000Z</time>
      </trkpt>
      <trkpt lat="40.65865" lon="43.9027">
        <ele>1626.862034</ele>
        <time>2021-10-31T10:32:13.946Z</time>
      </trkpt>
      <trkpt lat="40.66033" lon="43.90026">
        <ele>1627.552144</ele>
        <time>2021-10-31T10:32:54.977Z</time>
      </trkpt>
      <trkpt lat="40.6615" lon="43.89784">
        <ele>1617.250499</ele>
        <time>2021-10-31T10:33:16.980Z</time>
      </trkpt>
      <trkpt lat="40.66246" lon="43.89463">
        <ele>1602.514517</ele>
        <time>2021-10-31T10:33:48.939Z</time>
      </trkpt>
      <trkpt lat="40.66264" lon="43.89113">
        <ele>1596.618155</ele>
        <time>2021-10-31T10:34:28.956Z</time>
      </trkpt>
      <trkpt lat="40.66242" lon="43.88838">
        <ele>1593.925135</ele>
        <time>2021-10-31T10:35:09.975Z</time>
      </trkpt>
      <trkpt lat="40.66226" lon="43.88532">
        <ele>1590.382288</ele>
        <time>2021-10-31T10:35:49.952Z</time>
      </trkpt>
      <trkpt lat="40.66209" lon="43.88266">
        <ele>1588.777771</ele>
        <time>2021-10-31T10:36:29.969Z</time>
      </trkpt>
      <trkpt lat="40.66164" lon="43.87982">
        <ele>1586.290237</ele>
        <time>2021-10-31T10:37:09.993Z</time>
      </trkpt>
      <trkpt lat="40.6613" lon="43.877">
        <ele>1583.476415</ele>
        <time>2021-10-31T10:37:49.957Z</time>
      </trkpt>
      <trkpt lat="40.66097" lon="43.87417">
        <ele>1580.453981</ele>
        <time>2021-10-31T10:38:29.963Z</time>
      </trkpt>
      <trkpt lat="40.66076" lon="43.8715">
        <ele>1579.375131</ele>
        <time>2021-10-31T10:39:07.992Z</time>
      </trkpt>
      <trkpt lat="40.66056" lon="43.86876">
        <ele>1577.165335</ele>
        <time>2021-10-31T10:39:47.963Z</time>
      </trkpt>
      <trkpt lat="40.66038" lon="43.86612">
        <ele>1575.094011</ele>
        <time>2021-10-31T10:40:27.992Z</time>
      </trkpt>
      <trkpt lat="40.66024" lon="43.86345">
        <ele>1576.109422</ele>
        <time>2021-10-31T10:41:09.955Z</time>
      </trkpt>
      <trkpt lat="40.66008" lon="43.86062">
        <ele>1573.627157</ele>
        <time>2021-10-31T10:41:49.972Z</time>
      </trkpt>
      <trkpt lat="40.65992" lon="43.85789">
        <ele>1569.635924</ele>
        <time>2021-10-31T10:42:31.950Z</time>
      </trkpt>
      <trkpt lat="40.65976" lon="43.85525">
        <ele>1566.717514</ele>
        <time>2021-10-31T10:43:13.957Z</time>
      </trkpt>
      <trkpt lat="40.65959" lon="43.85217">
        <ele>1568.803972</ele>
        <time>2021-10-31T10:44:10.974Z</time>
      </trkpt>
      <trkpt lat="40.66176" lon="43.85194">
        <ele>1573.999207</ele>
        <time>2021-10-31T10:45:12.966Z</time>
      </trkpt>
      <trkpt lat="40.66424" lon="43.85208">
        <ele>1572.614165</ele>
        <time>2021-10-31T10:46:12.961Z</time>
      </trkpt>
      <trkpt lat="40.6667" lon="43.85222">
        <ele>1574.196047</ele>
        <time>2021-10-31T10:47:12.955Z</time>
      </trkpt>
      <trkpt lat="40.6691" lon="43.85216">
        <ele>1574.878848</ele>
        <time>2021-10-31T10:48:12.966Z</time>
      </trkpt>
      <trkpt lat="40.67129" lon="43.85141">
        <ele>1571.952653</ele>
        <time>2021-10-31T10:49:04.981Z</time>
      </trkpt>
      <trkpt lat="40.6733" lon="43.85027">
        <ele>1570.196828</ele>
        <time>2021-10-31T10:49:44.969Z</time>
      </trkpt>
      <trkpt lat="40.6752" lon="43.84913">
        <ele>1567.46531</ele>
        <time>2021-10-31T10:50:28.949Z</time>
      </trkpt>
      <trkpt lat="40.67728" lon="43.84792">
        <ele>1570.109476</ele>
        <time>2021-10-31T10:51:25.975Z</time>
      </trkpt>
      <trkpt lat="40.67938" lon="43.84667">
        <ele>1572.903595</ele>
        <time>2021-10-31T10:52:25.964Z</time>
      </trkpt>
      <trkpt lat="40.68149" lon="43.84529">
        <ele>1571.189156</ele>
        <time>2021-10-31T10:53:25.980Z</time>
      </trkpt>
      <trkpt lat="40.68371" lon="43.84396">
        <ele>1565.196494</ele>
        <time>2021-10-31T10:54:07.978Z</time>
      </trkpt>
      <trkpt lat="40.68633" lon="43.84242">
        <ele>1550.048001</ele>
        <time>2021-10-31T10:54:44.959Z</time>
      </trkpt>
      <trkpt lat="40.68834" lon="43.84122">
        <ele>1539.493751</ele>
        <time>2021-10-31T10:55:08.971Z</time>
      </trkpt>
      <trkpt lat="40.69052" lon="43.83992">
        <ele>1540.510757</ele>
        <time>2021-10-31T10:55:48.964Z</time>
      </trkpt>
      <trkpt lat="40.69256" lon="43.83868">
        <ele>1540.160074</ele>
        <time>2021-10-31T10:56:28.967Z</time>
      </trkpt>
      <trkpt lat="40.69458" lon="43.8375">
        <ele>1540.487945</ele>
        <time>2021-10-31T10:57:09.977Z</time>
      </trkpt>
      <trkpt lat="40.69677" lon="43.83664">
        <ele>1539.640717</ele>
        <time>2021-10-31T10:57:49.961Z</time>
      </trkpt>
      <trkpt lat="40.69892" lon="43.83722">
        <ele>1539.914101</ele>
        <time>2021-10-31T10:58:34.970Z</time>
      </trkpt>
      <trkpt lat="40.70101" lon="43.83797">
        <ele>1537.701596</ele>
        <time>2021-10-31T10:59:26.969Z</time>
      </trkpt>
      <trkpt lat="40.70334" lon="43.83878">
        <ele>1537.798307</ele>
        <time>2021-10-31T11:00:26.972Z</time>
      </trkpt>
      <trkpt lat="40.70561" lon="43.83959">
        <ele>1538.743565</ele>
        <time>2021-10-31T11:01:24.967Z</time>
      </trkpt>
      <trkpt lat="40.70781" lon="43.84036">
        <ele>1537.507152</ele>
        <time>2021-10-31T11:02:21.956Z</time>
      </trkpt>
      <trkpt lat="40.70994" lon="43.84068">
        <ele>1533.837314</ele>
        <time>2021-10-31T11:03:11.955Z</time>
      </trkpt>
      <trkpt lat="40.71212" lon="43.84006">
        <ele>1526.460706</ele>
        <time>2021-10-31T11:09:43.028Z</time>
      </trkpt>
      <trkpt lat="40.71418" lon="43.83943">
        <ele>1520.906668</ele>
        <time>2021-10-31T11:10:26.979Z</time>
      </trkpt>
      <trkpt lat="40.71632" lon="43.8388">
        <ele>1522.805747</ele>
        <time>2021-10-31T11:11:14.968Z</time>
      </trkpt>
      <trkpt lat="40.71864" lon="43.83811">
        <ele>1521.234248</ele>
        <time>2021-10-31T11:12:11.979Z</time>
      </trkpt>
      <trkpt lat="40.72085" lon="43.83729">
        <ele>1522.294094</ele>
        <time>2021-10-31T11:13:12.007Z</time>
      </trkpt>
      <trkpt lat="40.72284" lon="43.83598">
        <ele>1519.668475</ele>
        <time>2021-10-31T11:13:59.981Z</time>
      </trkpt>
      <trkpt lat="40.72467" lon="43.83478">
        <ele>1515.486305</ele>
        <time>2021-10-31T11:14:43.957Z</time>
      </trkpt>
      <trkpt lat="40.7266" lon="43.83343">
        <ele>1514.769329</ele>
        <time>2021-10-31T11:15:32.965Z</time>
      </trkpt>
      <trkpt lat="40.72844" lon="43.83218">
        <ele>1521.202608</ele>
        <time>2021-10-31T11:17:04.973Z</time>
      </trkpt>
      <trkpt lat="40.7304" lon="43.8309">
        <ele>1523.964823</ele>
        <time>2021-10-31T11:53:30.011Z</time>
      </trkpt>
      <trkpt lat="40.7324" lon="43.83013">
        <ele>1524.808558</ele>
        <time>2021-10-31T11:54:41.981Z</time>
      </trkpt>
      <trkpt lat="40.7346" lon="43.83">
        <ele>1526.437797</ele>
        <time>2021-10-31T11:55:41.980Z</time>
      </trkpt>
      <trkpt lat="40.73678" lon="43.83012">
        <ele>1527.355525</ele>
        <time>2021-10-31T11:56:41.987Z</time>
      </trkpt>
      <trkpt lat="40.73897" lon="43.83027">
        <ele>1527.958299</ele>
        <time>2021-10-31T11:57:41.996Z</time>
      </trkpt>
      <trkpt lat="40.74103" lon="43.8304">
        <ele>1532.591405</ele>
        <time>2021-10-31T11:58:45.984Z</time>
      </trkpt>
      <trkpt lat="40.7432" lon="43.83052">
        <ele>1536.555335</ele>
        <time>2021-10-31T11:59:45.992Z</time>
      </trkpt>
      <trkpt lat="40.74541" lon="43.83062">
        <ele>1538.65491</ele>
        <time>2021-10-31T12:00:45.991Z</time>
      </trkpt>
      <trkpt lat="40.74754" lon="43.83076">
        <ele>1540.700796</ele>
        <time>2021-10-31T12:01:46.008Z</time>
      </trkpt>
      <trkpt lat="40.74968" lon="43.83122">
        <ele>1537.409032</ele>
        <time>2021-10-31T12:02:49.000Z</time>
      </trkpt>
      <trkpt lat="40.75187" lon="43.83167">
        <ele>1539.504344</ele>
        <time>2021-10-31T12:03:49.979Z</time>
      </trkpt>
      <trkpt lat="40.75417" lon="43.83174">
        <ele>1539.853982</ele>
        <time>2021-10-31T12:04:50.023Z</time>
      </trkpt>
      <trkpt lat="40.75623" lon="43.83219">
        <ele>1542.807302</ele>
        <time>2021-10-31T12:05:49.982Z</time>
      </trkpt>
      <trkpt lat="40.75792" lon="43.83419">
        <ele>1544.825007</ele>
        <time>2021-10-31T12:06:50.008Z</time>
      </trkpt>
      <trkpt lat="40.75969" lon="43.83631">
        <ele>1549.210568</ele>
        <time>2021-10-31T12:07:47.986Z</time>
      </trkpt>
      <trkpt lat="40.76129" lon="43.83828">
        <ele>1549.53725</ele>
        <time>2021-10-31T12:08:35.987Z</time>
      </trkpt>
      <trkpt lat="40.7629" lon="43.84017">
        <ele>1547.555219</ele>
        <time>2021-10-31T12:09:22.969Z</time>
      </trkpt>
      <trkpt lat="40.76453" lon="43.84179">
        <ele>1548.603683</ele>
        <time>2021-10-31T12:10:06.993Z</time>
      </trkpt>
      <trkpt lat="40.7662" lon="43.84325">
        <ele>1552.691977</ele>
        <time>2021-10-31T12:10:49.981Z</time>
      </trkpt>
      <trkpt lat="40.76793" lon="43.84482">
        <ele>1555.705648</ele>
        <time>2021-10-31T12:11:33.987Z</time>
      </trkpt>
      <trkpt lat="40.7696" lon="43.84652">
        <ele>1550.144389</ele>
        <time>2021-10-31T12:12:19.992Z</time>
      </trkpt>
      <trkpt lat="40.77142" lon="43.84821">
        <ele>1548.668383</ele>
        <time>2021-10-31T12:13:17.997Z</time>
      </trkpt>
      <trkpt lat="40.77327" lon="43.8498">
        <ele>1556.326905</ele>
        <time>2021-10-31T12:14:15.987Z</time>
      </trkpt>
      <trkpt lat="40.77514" lon="43.85153">
        <ele>1558.524452</ele>
        <time>2021-10-31T12:15:16.989Z</time>
      </trkpt>
      <trkpt lat="40.77704" lon="43.85333">
        <ele>1555.760225</ele>
        <time>2021-10-31T12:16:15.989Z</time>
      </trkpt>
      <trkpt lat="40.77886" lon="43.85531">
        <ele>1552.9338</ele>
        <time>2021-10-31T12:17:10.011Z</time>
      </trkpt>
      <trkpt lat="40.77995" lon="43.85413">
        <ele>1555.620607</ele>
        <time>2021-10-31T12:18:08.972Z</time>
      </trkpt>
      <trkpt lat="40.78045" lon="43.85165">
        <ele>1559.945154</ele>
        <time>2021-10-31T12:19:08.971Z</time>
      </trkpt>
      <trkpt lat="40.78059" lon="43.84829">
        <ele>1552.797784</ele>
        <time>2021-10-31T12:19:55.995Z</time>
      </trkpt>
      <trkpt lat="40.78072" lon="43.84542">
        <ele>1543.941112</ele>
        <time>2021-10-31T12:20:38.979Z</time>
      </trkpt>
      <trkpt lat="40.78092" lon="43.84255">
        <ele>1545.49987</ele>
        <time>2021-10-31T12:21:45.995Z</time>
      </trkpt>
      <trkpt lat="40.78167" lon="43.84072">
        <ele>1548.088784</ele>
        <time>2021-10-31T12:23:01.976Z</time>
      </trkpt>
      <trkpt lat="40.7822" lon="43.84041">
        <ele>1548.088784</ele>
        <time>2021-10-31T12:55:01.944Z</time>
      </trkpt>
    </trkseg>
  </trk>
</gpx>